Time;durP1;ratioP1;P1;durP2;ratioP2;P2;SDS_P1;SDS_P2;PMS_P1;PMS_P2;Temp;Humidity;BMP_temperature;BMP_pressure;BME280_temperature;BME280_humidity;BME280_pressure;Samples;Min_cycle;Max_cycle;Signal;HPM_P1;HPM_P2
2021/08/27 00:10:23;;;;;;;2.53;1.10;;;;;;;;;;6167519;22;20536;31
2021/08/27 00:17:29;;;;;;;5.78;0.93;;;;;;;;;;6197561;22;20502;-61
2021/08/27 00:26:33;;;;;;;3.70;1.25;;;;;;;;;;5810152;23;20254;31
2021/08/27 00:33:05;;;;;;;5.10;1.20;;;;;;;;;;6265339;22;20448;31
2021/08/27 00:44:40;;;;;;;4.15;0.98;;;;;;;;;;6333912;22;20545;31
2021/08/27 00:53:57;;;;;;;3.42;1.00;;;;;;;;;;6179718;22;20210;31
2021/08/27 00:58:27;;;;;;;4.45;1.05;;;;;;;;;;6175679;22;20546;-62
2021/08/27 01:08:05;;;;;;;1.30;0.93;;;;;;;;;;6343564;22;20557;31
2021/08/27 01:14:43;;;;;;;3.17;1.10;;;;;;;;;;6173621;22;20198;31
2021/08/27 01:28:32;;;;;;;1.73;0.80;;;;;;;;;;6259055;22;20204;31
2021/08/27 01:33:09;;;;;;;2.10;0.88;;;;;;;;;;6323128;22;20542;31
2021/08/27 01:46:26;;;;;;;1.67;1.00;;;;;;;;;;6229506;22;20653;-66
2021/08/27 01:55:44;;;;;;;2.28;0.90;;;;;;;;;;6196238;22;20195;31
2021/08/27 02:00:20;;;;;;;5.55;1.58;;;;;;;;;;6291071;22;21472;-66
2021/08/27 02:09:58;;;;;;;3.08;0.93;;;;;;;;;;6257716;22;20204;31
2021/08/27 02:26:45;;;;;;;5.07;0.93;;;;;;;;;;6310840;22;20209;-69
2021/08/27 02:29:11;;;;;;;2.85;1.20;;;;;;;;;;6316307;22;20197;-68
2021/08/27 02:31:38;;;;;;;3.42;0.90;;;;;;;;;;6316525;22;20153;-68
2021/08/27 02:34:05;;;;;;;5.40;1.13;;;;;;;;;;6305496;22;20177;-68
2021/08/27 02:37:18;;;;;;;3.15;0.90;;;;;;;;;;5722178;22;20577;31
2021/08/27 02:39:46;;;;;;;7.13;1.08;;;;;;;;;;5628123;23;20249;31
2021/08/27 02:56:53;;;;;;;7.18;1.27;;;;;;;;;;5252657;23;20298;-68
2021/08/27 02:59:20;;;;;;;2.40;0.82;;;;;;;;;;4971746;28;20168;-68
2021/08/27 03:04:58;;;;;;;3.88;1.20;;;;;;;;;;6168705;22;20518;31
2021/08/27 03:14:20;;;;;;;3.38;1.10;;;;;;;;;;6258295;22;20204;31
2021/08/27 03:28:08;;;;;;;2.00;0.80;;;;;;;;;;6196919;22;20206;31
2021/08/27 03:53:27;;;;;;;2.53;0.93;;;;;;;;;;6290510;22;21716;31
2021/08/27 04:02:29;;;;;;;2.70;0.90;;;;;;;;;;6288638;22;20212;31
2021/08/27 04:07:05;;;;;;;3.03;1.05;;;;;;;;;;6262268;22;20541;31
2021/08/27 04:13:59;;;;;;;1.27;0.88;;;;;;;;;;6323253;22;20531;31
2021/08/27 04:30:38;;;;;;;3.13;1.30;;;;;;;;;;6319295;22;20200;31
2021/08/27 04:54:36;;;;;;;2.95;1.20;;;;;;;;;;6230444;22;20559;31
2021/08/27 05:04:00;;;;;;;1.80;1.23;;;;;;;;;;6289283;22;22821;31
2021/08/27 05:14:57;;;;;;;1.83;1.00;;;;;;;;;;6291679;22;21011;-61
2021/08/27 05:17:23;;;;;;;1.10;1.05;;;;;;;;;;6273403;22;20182;-62
2021/08/27 05:19:49;;;;;;;2.40;1.52;;;;;;;;;;6285194;22;20141;-62
2021/08/27 05:22:15;;;;;;;1.33;1.23;;;;;;;;;;6258158;22;20468;-62
2021/08/27 05:24:40;;;;;;;2.38;1.40;;;;;;;;;;6285549;22;20642;-62
2021/08/27 05:27:06;;;;;;;2.90;1.40;;;;;;;;;;6285146;22;20149;-62
2021/08/27 05:29:32;;;;;;;1.52;1.30;;;;;;;;;;6285399;22;20154;-62
2021/08/27 05:31:58;;;;;;;1.60;1.30;;;;;;;;;;6285377;22;20165;-63
2021/08/27 05:34:24;;;;;;;1.42;1.10;;;;;;;;;;6284931;22;20177;-62
2021/08/27 05:36:50;;;;;;;2.25;1.10;;;;;;;;;;6284928;22;20142;-62
2021/08/27 05:39:16;;;;;;;2.25;1.25;;;;;;;;;;6284990;22;20452;-62
2021/08/27 05:41:42;;;;;;;3.28;1.38;;;;;;;;;;6285149;22;20153;-68
2021/08/27 05:44:08;;;;;;;1.10;1.00;;;;;;;;;;6285243;22;20232;-68
2021/08/27 05:46:34;;;;;;;1.25;1.00;;;;;;;;;;6284755;22;20363;-68
2021/08/27 05:49:00;;;;;;;0.98;0.90;;;;;;;;;;6285213;22;20147;-68
2021/08/27 05:51:26;;;;;;;1.60;1.02;;;;;;;;;;6285049;22;20139;-69
2021/08/27 05:53:52;;;;;;;1.77;0.80;;;;;;;;;;6284630;22;20174;-68
2021/08/27 05:56:18;;;;;;;2.22;1.00;;;;;;;;;;6285090;22;20143;-68
2021/08/27 05:58:47;;;;;;;1.40;1.20;;;;;;;;;;6284514;22;20481;-68
2021/08/27 06:01:13;;;;;;;2.03;1.10;;;;;;;;;;6284977;22;20146;-68
2021/08/27 06:03:39;;;;;;;1.88;1.00;;;;;;;;;;6284494;22;20574;-68
2021/08/27 06:06:05;;;;;;;1.60;1.00;;;;;;;;;;6284695;22;20171;-68
2021/08/27 06:08:31;;;;;;;3.78;1.42;;;;;;;;;;6284548;22;20243;-68
2021/08/27 06:10:57;;;;;;;1.40;0.90;;;;;;;;;;6284551;22;20139;-68
2021/08/27 06:13:23;;;;;;;2.03;1.35;;;;;;;;;;6284711;22;20465;-68
2021/08/27 06:15:48;;;;;;;2.22;1.00;;;;;;;;;;6284493;22;20146;-68
2021/08/27 06:18:14;;;;;;;1.75;1.02;;;;;;;;;;6284932;22;20275;-68
2021/08/27 06:20:40;;;;;;;2.88;1.00;;;;;;;;;;6284435;22;20149;-68
2021/08/27 06:23:06;;;;;;;1.90;0.80;;;;;;;;;;6284731;22;20150;-68
2021/08/27 06:25:32;;;;;;;1.80;1.10;;;;;;;;;;6279489;22;20452;-59
2021/08/27 06:27:58;;;;;;;1.70;0.90;;;;;;;;;;6277653;22;20454;-59
2021/08/27 06:30:24;;;;;;;2.25;0.93;;;;;;;;;;6277334;22;20490;-59
2021/08/27 06:32:50;;;;;;;0.60;0.60;;;;;;;;;;6277545;22;20177;-59
2021/08/27 06:35:16;;;;;;;1.60;0.80;;;;;;;;;;6277525;22;20214;-59
2021/08/27 06:40:27;;;;;;;1.48;0.88;;;;;;;;;;6277514;22;20144;-59
2021/08/27 06:42:53;;;;;;;1.75;0.82;;;;;;;;;;6277322;22;20139;-59
2021/08/27 06:45:18;;;;;;;1.02;0.70;;;;;;;;;;6277751;22;20447;-59
2021/08/27 06:47:44;;;;;;;1.40;0.88;;;;;;;;;;6277260;22;20215;-59
2021/08/27 06:50:10;;;;;;;2.35;0.95;;;;;;;;;;6277323;22;20557;-59
2021/08/27 06:52:36;;;;;;;1.38;0.68;;;;;;;;;;6277005;22;20139;-59
2021/08/27 06:55:03;;;;;;;1.95;0.70;;;;;;;;;;6277360;22;20139;-59
2021/08/27 06:57:29;;;;;;;0.90;0.63;;;;;;;;;;6277248;22;20201;-59
2021/08/27 06:59:55;;;;;;;0.80;0.70;;;;;;;;;;6277307;22;20243;-59
2021/08/27 07:02:21;;;;;;;1.73;1.02;;;;;;;;;;6277150;22;20185;-60
2021/08/27 07:04:47;;;;;;;3.33;0.82;;;;;;;;;;6277574;22;20201;-59
2021/08/27 07:07:13;;;;;;;1.40;0.70;;;;;;;;;;6277130;22;20151;-59
2021/08/27 07:09:39;;;;;;;1.15;0.90;;;;;;;;;;6277646;22;20159;-59
2021/08/27 07:12:05;;;;;;;0.70;0.60;;;;;;;;;;6250666;22;20561;-60
2021/08/27 07:14:31;;;;;;;0.60;0.52;;;;;;;;;;6276975;22;20537;-60
2021/08/27 07:16:59;;;;;;;0.90;0.50;;;;;;;;;;6277190;22;20240;-60
2021/08/27 07:19:25;;;;;;;1.35;0.65;;;;;;;;;;6276992;22;20552;-60
2021/08/27 07:21:50;;;;;;;1.08;0.50;;;;;;;;;;6277143;22;20139;-60
2021/08/27 07:24:16;;;;;;;1.50;0.60;;;;;;;;;;6277017;22;20616;-60
2021/08/27 07:26:42;;;;;;;0.85;0.50;;;;;;;;;;6277173;22;20143;-60
2021/08/27 07:29:08;;;;;;;0.70;0.63;;;;;;;;;;6276998;22;20139;-60
2021/08/27 07:31:34;;;;;;;0.43;0.43;;;;;;;;;;6277066;22;20153;-60
2021/08/27 07:34:00;;;;;;;0.45;0.35;;;;;;;;;;6276980;22;20173;-60
2021/08/27 07:36:26;;;;;;;0.40;0.32;;;;;;;;;;6276313;22;20139;-60
2021/08/27 07:38:52;;;;;;;0.95;0.35;;;;;;;;;;6277004;22;20139;-60
2021/08/27 07:41:18;;;;;;;0.60;0.30;;;;;;;;;;6277322;22;20139;-60
2021/08/27 07:43:44;;;;;;;1.13;0.40;;;;;;;;;;6277411;22;20230;-60
2021/08/27 07:46:09;;;;;;;1.27;0.40;;;;;;;;;;6277508;22;20281;-60
2021/08/27 07:48:35;;;;;;;1.27;0.32;;;;;;;;;;6277337;22;20143;-60
2021/08/27 07:51:01;;;;;;;0.20;0.20;;;;;;;;;;6277397;22;20563;-60
2021/08/27 07:53:27;;;;;;;0.70;0.30;;;;;;;;;;6276972;22;20167;-60
2021/08/27 07:55:53;;;;;;;1.10;0.40;;;;;;;;;;6277384;22;20224;-60
2021/08/27 07:58:19;;;;;;;0.40;0.30;;;;;;;;;;6277305;22;20326;-60
2021/08/27 08:00:45;;;;;;;0.75;0.30;;;;;;;;;;6277286;22;20432;-60
2021/08/27 08:03:11;;;;;;;0.65;0.30;;;;;;;;;;6277556;22;20191;-60
2021/08/27 08:05:37;;;;;;;1.10;0.40;;;;;;;;;;6277339;22;20220;-60
2021/08/27 08:08:03;;;;;;;0.28;0.28;;;;;;;;;;6277188;22;20139;-60
2021/08/27 08:10:29;;;;;;;0.30;0.30;;;;;;;;;;6277261;22;20139;-60
2021/08/27 08:12:55;;;;;;;0.43;0.25;;;;;;;;;;6277142;22;20174;-60
2021/08/27 08:15:23;;;;;;;1.02;0.30;;;;;;;;;;6277089;22;20197;-60
2021/08/27 08:17:49;;;;;;;0.32;0.30;;;;;;;;;;6277097;22;20244;-60
2021/08/27 08:20:15;;;;;;;0.25;0.20;;;;;;;;;;6277386;22;20150;-60
2021/08/27 08:22:41;;;;;;;0.30;0.30;;;;;;;;;;6277421;22;20135;-60
2021/08/27 08:25:07;;;;;;;0.60;0.30;;;;;;;;;;6277410;22;20467;-60
2021/08/27 08:27:34;;;;;;;0.32;0.30;;;;;;;;;;6277135;22;20190;-60
2021/08/27 08:30:01;;;;;;;0.88;0.30;;;;;;;;;;6277359;22;20407;-60
2021/08/27 08:32:26;;;;;;;0.40;0.40;;;;;;;;;;6277105;22;20157;-60
2021/08/27 08:34:52;;;;;;;1.02;0.45;;;;;;;;;;6276798;22;20468;-60
2021/08/27 08:37:18;;;;;;;0.68;0.40;;;;;;;;;;6277033;22;20139;-60
2021/08/27 08:39:46;;;;;;;0.30;0.20;;;;;;;;;;6276657;22;20143;-59
2021/08/27 08:42:12;;;;;;;0.60;0.50;;;;;;;;;;6251248;22;20140;-59
2021/08/27 08:44:38;;;;;;;0.80;0.32;;;;;;;;;;6276837;22;20166;-59
2021/08/27 08:47:06;;;;;;;0.45;0.32;;;;;;;;;;6276954;22;20138;-59
2021/08/27 08:49:33;;;;;;;1.38;0.30;;;;;;;;;;6277009;22;20224;-59
2021/08/27 08:51:59;;;;;;;0.35;0.30;;;;;;;;;;6276899;22;20139;-59
2021/08/27 08:54:25;;;;;;;0.85;0.30;;;;;;;;;;6276607;22;20221;-59
2021/08/27 08:56:51;;;;;;;0.50;0.40;;;;;;;;;;6276238;22;20501;-59
2021/08/27 08:59:17;;;;;;;0.80;0.22;;;;;;;;;;6276560;22;20321;-59
2021/08/27 09:01:43;;;;;;;0.90;0.22;;;;;;;;;;6276326;22;20465;-59
2021/08/27 09:04:09;;;;;;;1.23;0.60;;;;;;;;;;6276343;22;20190;-59
2021/08/27 09:06:35;;;;;;;1.00;0.30;;;;;;;;;;6276130;22;20177;-60
2021/08/27 09:09:01;;;;;;;0.55;0.20;;;;;;;;;;6276016;22;20202;-60
2021/08/27 09:11:29;;;;;;;0.20;0.20;;;;;;;;;;6275949;22;20178;-60
2021/08/27 09:18:50;;;;;;;0.32;0.20;;;;;;;;;;6275870;22;20187;-60
2021/08/27 09:21:36;;;;;;;0.20;0.20;;;;;;;;;;6274481;22;20213;-60
2021/08/27 09:24:15;;;;;;;0.52;0.35;;;;;;;;;;6273475;22;20179;-59
2021/08/27 09:26:42;;;;;;;0.32;0.30;;;;;;;;;;6261873;22;20513;-60
2021/08/27 09:31:38;;;;;;;0.60;0.43;;;;;;;;;;6275229;22;20262;-61
2021/08/27 09:34:04;;;;;;;0.30;0.30;;;;;;;;;;6275193;22;20199;-61
2021/08/27 09:36:31;;;;;;;0.35;0.35;;;;;;;;;;6275314;22;20669;-61
2021/08/27 09:43:56;;;;;;;0.80;0.30;;;;;;;;;;6244176;22;20603;-61
2021/08/27 09:49:00;;;;;;;0.38;0.35;;;;;;;;;;6243913;22;20474;-62
2021/08/27 09:53:59;;;;;;;0.30;0.30;;;;;;;;;;6244069;22;20253;-62
2021/08/27 09:58:52;;;;;;;0.50;0.22;;;;;;;;;;6231994;22;20175;31
2021/08/27 10:01:17;;;;;;;0.93;0.85;;;;;;;;;;6229251;22;20198;31
2021/08/27 10:03:43;;;;;;;0.57;0.20;;;;;;;;;;6190890;22;989246;31
2021/08/27 10:08:36;;;;;;;0.47;0.30;;;;;;;;;;6235403;22;20979;31
2021/08/27 10:13:28;;;;;;;1.35;0.50;;;;;;;;;;6234034;22;20206;-62
2021/08/27 10:17:02;;;;;;;0.40;0.30;;;;;;;;;;5507236;22;20600;-64
2021/08/27 10:19:25;;;;;;;1.48;0.70;;;;;;;;;;5561780;22;20215;31
2021/08/27 10:24:17;;;;;;;1.23;0.40;;;;;;;;;;5549748;22;20219;31
2021/08/27 10:27:48;;;;;;;0.60;0.30;;;;;;;;;;5580635;22;20682;31
2021/08/27 10:30:14;;;;;;;0.60;0.32;;;;;;;;;;5456505;22;20184;-63
2021/08/27 10:35:06;;;;;;;0.30;0.30;;;;;;;;;;5481890;22;21197;31
2021/08/27 10:39:58;;;;;;;0.40;0.32;;;;;;;;;;5448688;22;20464;31
2021/08/27 10:49:50;;;;;;;0.35;0.30;;;;;;;;;;5423521;22;20582;-62
2021/08/27 10:59:41;;;;;;;0.95;0.30;;;;;;;;;;5434968;22;20267;-63
2021/08/27 11:02:41;;;;;;;1.10;0.57;;;;;;;;;;5442783;22;20703;31
2021/08/27 11:12:31;;;;;;;0.45;0.30;;;;;;;;;;5205510;22;20285;-64
2021/08/27 11:15:17;;;;;;;0.85;0.50;;;;;;;;;;5069737;28;20596;-64
2021/08/27 11:18:03;;;;;;;0.77;0.30;;;;;;;;;;5069653;28;20259;-64
2021/08/27 11:20:29;;;;;;;0.38;0.30;;;;;;;;;;5069663;28;20148;-64
2021/08/27 11:22:55;;;;;;;0.30;0.20;;;;;;;;;;5069606;28;20308;-63
2021/08/27 11:25:23;;;;;;;0.65;0.40;;;;;;;;;;5069618;28;20171;-63
2021/08/27 11:28:09;;;;;;;0.85;0.30;;;;;;;;;;5069369;28;20264;-64
2021/08/27 11:30:36;;;;;;;1.88;0.45;;;;;;;;;;5069500;28;20168;-63
2021/08/27 11:33:02;;;;;;;0.40;0.30;;;;;;;;;;5069519;28;20191;-64
2021/08/27 11:35:28;;;;;;;0.75;0.40;;;;;;;;;;5069641;28;20191;-63
2021/08/27 11:37:55;;;;;;;0.63;0.40;;;;;;;;;;5069671;28;20171;-62
2021/08/27 11:40:21;;;;;;;0.65;0.40;;;;;;;;;;5069241;28;20247;-63
2021/08/27 11:42:52;;;;;;;1.45;0.55;;;;;;;;;;5069359;28;20597;-63
2021/08/27 11:45:20;;;;;;;1.08;0.40;;;;;;;;;;5069532;28;20205;-63
2021/08/27 11:47:48;;;;;;;0.35;0.30;;;;;;;;;;5069446;28;20629;-63
2021/08/27 11:50:22;;;;;;;0.73;0.30;;;;;;;;;;5069319;28;20156;-64
2021/08/27 11:52:49;;;;;;;0.60;0.40;;;;;;;;;;5069815;28;20252;-62
2021/08/27 11:55:16;;;;;;;1.02;0.40;;;;;;;;;;5069607;28;20163;-64
2021/08/27 11:58:02;;;;;;;1.17;0.50;;;;;;;;;;5069530;28;20172;-63
2021/08/27 12:00:31;;;;;;;0.70;0.40;;;;;;;;;;5069287;28;20190;-62
2021/08/27 12:02:57;;;;;;;0.77;0.40;;;;;;;;;;5069253;28;20538;-62
2021/08/27 12:05:24;;;;;;;0.38;0.30;;;;;;;;;;5069213;28;20159;-62
2021/08/27 12:07:50;;;;;;;1.75;0.50;;;;;;;;;;5069042;28;20262;-62
2021/08/27 12:10:16;;;;;;;1.95;0.50;;;;;;;;;;5069241;28;20446;-62
2021/08/27 12:12:43;;;;;;;1.48;0.47;;;;;;;;;;5062768;28;20585;-62
2021/08/27 12:15:14;;;;;;;1.02;0.60;;;;;;;;;;5055967;28;20196;-63
2021/08/27 12:17:40;;;;;;;0.55;0.40;;;;;;;;;;5055581;28;20471;-63
2021/08/27 12:20:08;;;;;;;1.27;0.45;;;;;;;;;;5055675;28;20176;-62
2021/08/27 12:22:43;;;;;;;0.50;0.40;;;;;;;;;;5055524;28;20196;-63
2021/08/27 12:25:09;;;;;;;0.40;0.30;;;;;;;;;;5055722;28;20152;-62
2021/08/27 12:27:46;;;;;;;1.30;0.47;;;;;;;;;;5055502;28;20515;-62
2021/08/27 12:30:12;;;;;;;0.45;0.45;;;;;;;;;;5055390;28;20581;-64
2021/08/27 12:32:39;;;;;;;0.47;0.40;;;;;;;;;;5055486;28;20178;-63
2021/08/27 12:35:06;;;;;;;0.30;0.30;;;;;;;;;;5055158;28;20168;-64
2021/08/27 12:37:32;;;;;;;1.17;0.35;;;;;;;;;;5055346;28;20172;-64
2021/08/27 12:39:58;;;;;;;0.35;0.30;;;;;;;;;;5055068;28;20168;-64
2021/08/27 12:42:25;;;;;;;0.95;0.50;;;;;;;;;;5054789;28;20271;-63
2021/08/27 12:44:58;;;;;;;1.90;0.50;;;;;;;;;;5054803;28;20266;-63
2021/08/27 12:47:34;;;;;;;0.32;0.32;;;;;;;;;;5054816;28;20597;-63
2021/08/27 12:50:02;;;;;;;1.42;0.80;;;;;;;;;;5055150;28;20203;-63
2021/08/27 12:52:28;;;;;;;0.93;0.40;;;;;;;;;;5054900;28;20259;-63
2021/08/27 12:54:54;;;;;;;0.70;0.50;;;;;;;;;;5054730;28;20580;-63
2021/08/27 12:57:20;;;;;;;0.35;0.35;;;;;;;;;;5054632;28;20305;-63
2021/08/27 12:59:56;;;;;;;0.80;0.40;;;;;;;;;;5054644;28;20267;-63
2021/08/27 13:02:22;;;;;;;0.50;0.50;;;;;;;;;;5054322;28;20445;-63
2021/08/27 13:04:50;;;;;;;0.82;0.50;;;;;;;;;;5054941;28;20295;-63
2021/08/27 13:07:26;;;;;;;1.65;0.60;;;;;;;;;;5054670;28;20180;-63
2021/08/27 13:10:06;;;;;;;0.45;0.43;;;;;;;;;;5054703;28;20164;-63
2021/08/27 13:12:32;;;;;;;0.30;0.30;;;;;;;;;;5054264;28;20213;-63
2021/08/27 13:14:58;;;;;;;0.55;0.40;;;;;;;;;;5054612;28;20472;-63
2021/08/27 13:17:24;;;;;;;1.70;0.50;;;;;;;;;;5054298;28;20168;-63
2021/08/27 13:19:59;;;;;;;0.22;0.22;;;;;;;;;;5054180;28;20176;-63
2021/08/27 13:22:25;;;;;;;1.05;0.55;;;;;;;;;;5054237;28;20183;-63
2021/08/27 13:25:14;;;;;;;0.95;0.60;;;;;;;;;;5053388;28;20164;-63
2021/08/27 13:27:41;;;;;;;1.40;0.60;;;;;;;;;;5048565;28;20251;-63
2021/08/27 13:30:08;;;;;;;0.50;0.50;;;;;;;;;;5054013;28;20175;-63
2021/08/27 13:32:41;;;;;;;1.15;0.60;;;;;;;;;;5053878;28;20602;-62
2021/08/27 13:35:07;;;;;;;0.98;0.50;;;;;;;;;;5053895;28;20605;-63
2021/08/27 13:37:33;;;;;;;0.60;0.60;;;;;;;;;;5053777;28;20187;-62
2021/08/27 13:39:59;;;;;;;0.50;0.50;;;;;;;;;;5054036;28;20164;-62
2021/08/27 13:42:25;;;;;;;0.60;0.60;;;;;;;;;;5053668;28;20204;-63
2021/08/27 13:44:51;;;;;;;0.95;0.60;;;;;;;;;;5053655;28;20164;-62
2021/08/27 13:47:17;;;;;;;0.95;0.55;;;;;;;;;;5053269;28;20267;-62
2021/08/27 13:49:43;;;;;;;1.02;0.50;;;;;;;;;;5053416;28;20156;-62
2021/08/27 13:52:09;;;;;;;0.85;0.50;;;;;;;;;;5053365;28;20172;-62
2021/08/27 13:54:35;;;;;;;0.50;0.50;;;;;;;;;;5053475;28;20558;-62
2021/08/27 13:57:01;;;;;;;0.85;0.50;;;;;;;;;;5053404;28;20604;-62
2021/08/27 13:59:27;;;;;;;0.40;0.40;;;;;;;;;;5053448;28;20247;-63
2021/08/27 14:01:52;;;;;;;0.57;0.40;;;;;;;;;;5053351;28;20196;-59
2021/08/27 14:04:18;;;;;;;1.30;0.73;;;;;;;;;;5053386;28;20263;-59
2021/08/27 14:06:44;;;;;;;0.60;0.57;;;;;;;;;;5053374;28;20179;-59
2021/08/27 14:09:12;;;;;;;1.40;0.60;;;;;;;;;;5053192;28;20164;-59
2021/08/27 14:11:38;;;;;;;1.25;0.70;;;;;;;;;;5053176;28;20218;-59
2021/08/27 14:14:04;;;;;;;0.40;0.40;;;;;;;;;;5053117;28;20251;-59
2021/08/27 14:16:30;;;;;;;0.80;0.52;;;;;;;;;;5053449;28;20173;-64
2021/08/27 14:18:56;;;;;;;0.68;0.60;;;;;;;;;;5052958;28;20192;-63
2021/08/27 14:21:22;;;;;;;0.60;0.50;;;;;;;;;;5053519;28;20228;-69
2021/08/27 14:23:48;;;;;;;0.50;0.50;;;;;;;;;;5052005;28;20203;-59
2021/08/27 14:26:14;;;;;;;0.63;0.50;;;;;;;;;;5053122;28;20196;-59
2021/08/27 14:28:40;;;;;;;0.43;0.40;;;;;;;;;;5053053;28;20200;-59
2021/08/27 14:31:08;;;;;;;1.15;0.50;;;;;;;;;;5052947;28;20177;-59
2021/08/27 14:33:35;;;;;;;0.65;0.50;;;;;;;;;;5053113;28;20266;-59
2021/08/27 14:36:01;;;;;;;1.15;0.50;;;;;;;;;;5053045;28;20172;-63
2021/08/27 14:38:27;;;;;;;0.50;0.50;;;;;;;;;;5052828;28;20188;-69
2021/08/27 14:40:53;;;;;;;0.60;0.50;;;;;;;;;;5052721;28;20200;-63
2021/08/27 14:43:20;;;;;;;1.30;0.50;;;;;;;;;;5053047;28;20174;-64
2021/08/27 14:45:46;;;;;;;0.60;0.60;;;;;;;;;;5053097;28;20519;-64
2021/08/27 14:48:12;;;;;;;0.60;0.50;;;;;;;;;;5053027;28;20165;-62
2021/08/27 14:50:38;;;;;;;1.23;0.50;;;;;;;;;;5052984;28;20183;-69
2021/08/27 14:53:04;;;;;;;0.52;0.50;;;;;;;;;;5053234;28;20164;-69
2021/08/27 14:55:30;;;;;;;0.60;0.43;;;;;;;;;;5053448;28;20179;-69
2021/08/27 14:57:56;;;;;;;1.30;0.60;;;;;;;;;;5053220;28;20440;-62
2021/08/27 15:00:22;;;;;;;0.70;0.40;;;;;;;;;;5053394;28;20167;-63
2021/08/27 15:02:48;;;;;;;0.70;0.55;;;;;;;;;;5053077;28;20161;-59
2021/08/27 15:05:14;;;;;;;0.40;0.40;;;;;;;;;;5053284;28;20164;-59
2021/08/27 15:07:39;;;;;;;0.40;0.40;;;;;;;;;;5052974;28;20589;-59
2021/08/27 15:10:06;;;;;;;0.40;0.40;;;;;;;;;;5053189;28;20165;-59
2021/08/27 15:12:32;;;;;;;0.32;0.30;;;;;;;;;;5053050;28;20491;-59
2021/08/27 15:14:57;;;;;;;0.60;0.40;;;;;;;;;;5053035;28;20179;-59
2021/08/27 15:17:23;;;;;;;1.75;0.60;;;;;;;;;;5053353;28;20164;-59
2021/08/27 15:19:49;;;;;;;0.50;0.50;;;;;;;;;;5053267;28;20473;-59
2021/08/27 15:22:15;;;;;;;0.52;0.30;;;;;;;;;;5052693;28;20237;-59
2021/08/27 15:24:41;;;;;;;0.40;0.40;;;;;;;;;;5052747;28;20606;-59
2021/08/27 15:27:07;;;;;;;1.20;0.40;;;;;;;;;;5052839;28;20171;-59
2021/08/27 15:29:33;;;;;;;0.82;0.40;;;;;;;;;;5052718;28;20164;-59
2021/08/27 15:31:59;;;;;;;0.50;0.50;;;;;;;;;;5052691;28;20172;-59
2021/08/27 15:34:25;;;;;;;0.45;0.43;;;;;;;;;;5052588;28;20164;-59
2021/08/27 15:36:51;;;;;;;0.63;0.50;;;;;;;;;;5052863;28;20175;-59
2021/08/27 15:39:17;;;;;;;1.45;0.60;;;;;;;;;;5052673;28;20176;-59
2021/08/27 15:41:43;;;;;;;1.02;0.50;;;;;;;;;;5052435;28;20184;-59
2021/08/27 15:44:09;;;;;;;0.50;0.50;;;;;;;;;;5052645;28;20488;-59
2021/08/27 15:46:35;;;;;;;1.00;0.50;;;;;;;;;;5052345;28;20632;-59
2021/08/27 15:49:01;;;;;;;1.05;0.50;;;;;;;;;;5055330;28;20161;-59
2021/08/27 15:51:28;;;;;;;2.58;0.60;;;;;;;;;;5055957;28;20666;-59
2021/08/27 15:53:54;;;;;;;0.60;0.47;;;;;;;;;;5055879;28;20173;-59
2021/08/27 15:56:24;;;;;;;0.40;0.40;;;;;;;;;;5055880;28;20596;-60
2021/08/27 15:58:50;;;;;;;0.93;0.55;;;;;;;;;;5055845;28;20584;-59
2021/08/27 16:01:16;;;;;;;1.15;0.60;;;;;;;;;;5055761;28;20233;-59
2021/08/27 16:03:42;;;;;;;0.68;0.50;;;;;;;;;;5054320;28;20171;-59
2021/08/27 16:06:08;;;;;;;0.90;0.50;;;;;;;;;;5055828;28;20488;-59
2021/08/27 16:08:34;;;;;;;1.60;0.60;;;;;;;;;;5055304;28;20169;-58
2021/08/27 16:11:00;;;;;;;0.40;0.40;;;;;;;;;;5055288;28;20175;-58
2021/08/27 16:13:26;;;;;;;1.08;0.40;;;;;;;;;;5055287;28;20505;-59
2021/08/27 16:15:52;;;;;;;0.25;0.22;;;;;;;;;;5055272;28;20656;-58
2021/08/27 16:18:18;;;;;;;0.55;0.40;;;;;;;;;;5055234;28;20164;-58
2021/08/27 16:20:45;;;;;;;0.93;0.43;;;;;;;;;;5054877;28;20202;-58
2021/08/27 16:23:12;;;;;;;0.90;0.77;;;;;;;;;;5055000;28;20585;-58
2021/08/27 16:25:38;;;;;;;1.13;0.50;;;;;;;;;;5055022;28;20160;-58
2021/08/27 16:28:05;;;;;;;0.38;0.38;;;;;;;;;;5054957;28;20160;-58
2021/08/27 16:30:31;;;;;;;1.52;0.55;;;;;;;;;;5054969;28;20234;-58
2021/08/27 16:32:58;;;;;;;0.68;0.50;;;;;;;;;;5055052;28;20161;-58
2021/08/27 16:35:24;;;;;;;0.60;0.50;;;;;;;;;;5054717;28;20161;-58
2021/08/27 16:37:50;;;;;;;0.50;0.40;;;;;;;;;;5054784;28;20506;-59
2021/08/27 16:40:16;;;;;;;1.27;0.60;;;;;;;;;;5054668;28;20169;-58
2021/08/27 16:42:42;;;;;;;1.27;0.50;;;;;;;;;;5054650;28;20207;-58
2021/08/27 16:45:08;;;;;;;0.88;0.47;;;;;;;;;;5054620;28;20167;-58
2021/08/27 16:47:34;;;;;;;1.65;0.50;;;;;;;;;;5054666;28;20231;-61
2021/08/27 16:50:00;;;;;;;0.63;0.50;;;;;;;;;;5054617;28;20196;-62
2021/08/27 16:52:25;;;;;;;0.50;0.50;;;;;;;;;;5054398;28;20554;-62
2021/08/27 16:54:51;;;;;;;0.63;0.60;;;;;;;;;;5054852;28;20564;-61
2021/08/27 16:57:17;;;;;;;1.90;0.68;;;;;;;;;;5054356;28;20619;-61
2021/08/27 16:59:43;;;;;;;0.65;0.50;;;;;;;;;;5054415;28;20251;-62
2021/08/27 17:02:09;;;;;;;0.50;0.50;;;;;;;;;;5054121;28;20223;-62
2021/08/27 17:04:35;;;;;;;0.63;0.63;;;;;;;;;;5054360;28;20167;-61
2021/08/27 17:07:01;;;;;;;0.90;0.50;;;;;;;;;;5054359;28;20172;-61
2021/08/27 17:09:27;;;;;;;0.65;0.50;;;;;;;;;;5053959;28;20218;-62
2021/08/27 17:11:53;;;;;;;0.70;0.50;;;;;;;;;;5053877;28;20181;-62
2021/08/27 17:14:19;;;;;;;1.02;0.80;;;;;;;;;;5054226;28;20168;-62
2021/08/27 17:16:45;;;;;;;1.80;0.68;;;;;;;;;;5053807;28;20552;-62
2021/08/27 17:19:11;;;;;;;2.00;0.70;;;;;;;;;;5053776;28;20172;-62
2021/08/27 17:21:38;;;;;;;1.00;0.70;;;;;;;;;;5053622;28;20192;-62
2021/08/27 17:24:04;;;;;;;0.75;0.68;;;;;;;;;;5053665;28;20588;-62
2021/08/27 17:26:30;;;;;;;0.50;0.50;;;;;;;;;;5053547;28;20246;-62
2021/08/27 17:28:55;;;;;;;0.90;0.50;;;;;;;;;;5053462;28;20637;-62
2021/08/27 17:31:21;;;;;;;0.93;0.80;;;;;;;;;;5053361;28;20225;-62
2021/08/27 17:33:47;;;;;;;1.52;0.85;;;;;;;;;;5053430;28;20168;-62
2021/08/27 17:36:13;;;;;;;1.70;0.80;;;;;;;;;;5053396;28;20222;-62
2021/08/27 17:38:39;;;;;;;1.27;0.80;;;;;;;;;;5053632;28;20241;-62
2021/08/27 17:41:05;;;;;;;1.65;0.70;;;;;;;;;;5053096;28;20199;-62
2021/08/27 17:43:31;;;;;;;0.95;0.60;;;;;;;;;;5053222;28;20573;-62
2021/08/27 17:45:57;;;;;;;1.60;0.80;;;;;;;;;;5053153;28;20488;-62
2021/08/27 17:48:25;;;;;;;1.38;0.60;;;;;;;;;;5053257;28;20168;-62
2021/08/27 17:50:51;;;;;;;0.68;0.63;;;;;;;;;;5053313;28;20494;-62
2021/08/27 17:53:17;;;;;;;1.40;0.52;;;;;;;;;;5053186;28;20168;-62
2021/08/27 17:55:43;;;;;;;0.82;0.60;;;;;;;;;;5053226;28;20168;-62
2021/08/27 17:58:09;;;;;;;1.35;0.63;;;;;;;;;;5053289;28;20167;-62
2021/08/27 18:00:35;;;;;;;1.30;0.77;;;;;;;;;;5051873;28;20183;-62
2021/08/27 18:03:01;;;;;;;1.80;0.70;;;;;;;;;;5053069;28;20161;-62
2021/08/27 18:05:27;;;;;;;1.27;0.77;;;;;;;;;;5053012;28;20160;-62
2021/08/27 18:07:53;;;;;;;0.85;0.65;;;;;;;;;;5052712;28;20187;-62
2021/08/27 18:10:21;;;;;;;1.45;0.75;;;;;;;;;;5052303;28;20165;-62
2021/08/27 18:12:47;;;;;;;0.80;0.60;;;;;;;;;;5053222;28;20232;-62
2021/08/27 18:15:13;;;;;;;1.48;0.55;;;;;;;;;;5052724;28;20175;-62
2021/08/27 18:17:39;;;;;;;1.15;0.77;;;;;;;;;;5053030;28;20165;-62
2021/08/27 18:20:05;;;;;;;0.90;0.70;;;;;;;;;;5052630;28;20179;-61
2021/08/27 18:22:31;;;;;;;0.95;0.95;;;;;;;;;;5052609;28;20188;-62
2021/08/27 18:24:57;;;;;;;1.77;0.70;;;;;;;;;;5052857;28;20293;-61
2021/08/27 18:27:23;;;;;;;1.13;0.80;;;;;;;;;;5052569;28;20160;-62
2021/08/27 18:29:48;;;;;;;0.95;0.70;;;;;;;;;;5052608;28;20243;-62
2021/08/27 18:32:14;;;;;;;1.10;1.00;;;;;;;;;;5052758;28;20247;-62
2021/08/27 18:34:40;;;;;;;5.43;1.10;;;;;;;;;;5052558;28;20176;-62
2021/08/27 18:37:06;;;;;;;3.67;1.23;;;;;;;;;;5052454;28;20164;-62
2021/08/27 18:39:32;;;;;;;1.45;0.70;;;;;;;;;;5052311;28;20176;-62
2021/08/27 18:41:58;;;;;;;1.50;0.70;;;;;;;;;;5052229;28;20663;-62
2021/08/27 18:44:24;;;;;;;1.05;0.90;;;;;;;;;;5052480;28;20221;-62
2021/08/27 18:46:50;;;;;;;1.30;1.20;;;;;;;;;;5052763;28;20164;-62
2021/08/27 18:49:16;;;;;;;1.73;1.40;;;;;;;;;;5052505;28;20271;-61
2021/08/27 18:51:42;;;;;;;1.42;1.00;;;;;;;;;;5052708;28;20174;-61
2021/08/27 18:54:08;;;;;;;1.55;1.45;;;;;;;;;;5052835;28;20168;-63
2021/08/27 18:56:34;;;;;;;1.95;1.10;;;;;;;;;;5052653;28;20168;-62
2021/08/27 18:59:00;;;;;;;1.67;1.50;;;;;;;;;;5052914;28;20172;-62
2021/08/27 19:01:28;;;;;;;1.58;1.45;;;;;;;;;;5051414;28;20294;-62
2021/08/27 19:03:54;;;;;;;3.28;1.50;;;;;;;;;;5053020;28;20196;-62
2021/08/27 19:06:20;;;;;;;2.42;1.80;;;;;;;;;;5052664;28;20492;-62
2021/08/27 19:08:46;;;;;;;2.60;2.08;;;;;;;;;;5053201;28;20176;-62
2021/08/27 19:11:12;;;;;;;1.85;1.65;;;;;;;;;;5052668;28;20181;-62
2021/08/27 19:13:38;;;;;;;1.60;1.50;;;;;;;;;;5053130;28;20161;-62
2021/08/27 19:16:04;;;;;;;1.63;1.40;;;;;;;;;;5053028;28;20160;-63
2021/08/27 19:18:30;;;;;;;1.52;1.40;;;;;;;;;;5052867;28;20703;-62
2021/08/27 19:20:56;;;;;;;3.13;1.90;;;;;;;;;;5052682;28;20257;-62
2021/08/27 19:23:22;;;;;;;2.28;2.00;;;;;;;;;;5055183;28;20196;-62
2021/08/27 19:25:48;;;;;;;2.13;1.92;;;;;;;;;;5056702;28;20165;-62
2021/08/27 19:28:14;;;;;;;1.95;1.75;;;;;;;;;;5056758;28;20157;-62
2021/08/27 19:30:40;;;;;;;1.80;1.70;;;;;;;;;;5056653;28;20157;-62
2021/08/27 19:33:06;;;;;;;1.77;1.67;;;;;;;;;;5056971;28;20164;-62